createdAt,value
2018-07-01T00:00:02.195Z,0.00
2018-07-01T00:01:02.434Z,0.00
2018-07-01T00:02:02.676Z,0.00
2018-07-01T00:03:02.918Z,0.00
2018-07-01T00:04:03.158Z,0.00
2018-07-01T00:05:03.401Z,0.00
2018-07-01T00:06:03.647Z,0.00
2018-07-01T00:07:03.885Z,0.00
2018-07-01T00:08:04.128Z,0.00
2018-07-01T00:09:04.372Z,0.00
2018-07-01T00:10:04.614Z,0.00
2018-07-01T00:11:04.859Z,0.00
2018-07-01T00:12:05.098Z,0.00
2018-07-01T00:13:05.341Z,0.00
2018-07-01T00:14:05.583Z,0.00
2018-07-01T00:15:05.827Z,0.00
2018-07-01T00:16:06.067Z,0.00
2018-07-01T00:17:06.309Z,0.00
2018-07-01T00:18:06.548Z,0.00
2018-07-01T00:19:06.793Z,0.00
2018-07-01T00:20:07.033Z,0.00
2018-07-01T00:21:07.275Z,0.00
2018-07-01T00:22:07.518Z,0.00
2018-07-01T00:23:07.759Z,0.00
2018-07-01T00:24:08.001Z,0.00
2018-07-01T00:25:08.243Z,0.00
2018-07-01T00:26:08.489Z,0.00
2018-07-01T00:27:08.737Z,0.00
2018-07-01T00:28:08.975Z,0.00
2018-07-01T00:29:09.217Z,0.00
2018-07-01T00:30:09.460Z,0.00
2018-07-01T00:31:09.702Z,0.00
2018-07-01T00:32:09.945Z,0.00
2018-07-01T00:33:10.188Z,0.00
2018-07-01T00:34:10.430Z,0.00
2018-07-01T00:35:10.670Z,0.00
2018-07-01T00:36:10.916Z,0.00
2018-07-01T00:37:11.156Z,0.00
2018-07-01T00:38:11.400Z,0.00
2018-07-01T00:39:11.642Z,0.00
2018-07-01T00:40:11.884Z,0.00
2018-07-01T00:41:12.126Z,0.00
2018-07-01T00:42:12.370Z,0.00
2018-07-01T00:43:12.612Z,0.00
2018-07-01T00:44:12.853Z,0.00
2018-07-01T00:45:13.098Z,0.00
2018-07-01T00:46:13.341Z,0.00
2018-07-01T00:47:13.584Z,0.00
2018-07-01T00:48:13.827Z,0.00
2018-07-01T00:49:14.070Z,0.00
2018-07-01T00:50:14.313Z,0.00
2018-07-01T00:51:14.557Z,0.00
2018-07-01T00:52:14.799Z,0.00
2018-07-01T00:53:15.044Z,0.00
2018-07-01T00:54:15.286Z,0.00
2018-07-01T00:55:15.528Z,0.00
2018-07-01T00:56:15.770Z,0.00
2018-07-01T00:57:16.013Z,0.00
2018-07-01T00:58:16.255Z,0.00
2018-07-01T00:59:16.497Z,0.00
2018-07-01T01:00:16.739Z,0.00
2018-07-01T01:01:16.984Z,0.00
2018-07-01T01:02:17.225Z,0.00
2018-07-01T01:03:17.465Z,0.00
2018-07-01T01:04:17.709Z,0.00
2018-07-01T01:05:17.951Z,0.00
2018-07-01T01:06:18.193Z,0.00
2018-07-01T01:07:18.440Z,0.00
2018-07-01T01:08:18.677Z,0.00
2018-07-01T01:09:18.921Z,0.00
2018-07-01T01:10:19.161Z,0.00
2018-07-01T01:11:19.402Z,0.00
2018-07-01T01:12:19.642Z,0.00
2018-07-01T01:13:19.884Z,0.00
2018-07-01T01:14:20.126Z,0.00
2018-07-01T01:15:20.365Z,0.00
2018-07-01T01:16:20.604Z,0.00
2018-07-01T01:17:20.845Z,0.00
2018-07-01T01:18:21.084Z,0.00
2018-07-01T01:19:21.323Z,0.00
2018-07-01T01:20:21.564Z,0.00
2018-07-01T01:21:21.805Z,0.00
2018-07-01T01:22:22.039Z,0.00
2018-07-01T01:23:22.278Z,0.00
2018-07-01T01:24:22.513Z,0.00
2018-07-01T01:25:22.755Z,0.00
2018-07-01T01:26:22.994Z,0.00
2018-07-01T01:27:23.233Z,0.00
2018-07-01T01:28:23.473Z,0.00
2018-07-01T01:29:23.712Z,0.00
2018-07-01T01:30:23.952Z,0.00
2018-07-01T01:31:24.189Z,0.00
2018-07-01T01:32:24.427Z,0.00
2018-07-01T01:33:24.666Z,0.00
2018-07-01T01:34:24.904Z,0.00
2018-07-01T01:35:25.145Z,0.00
2018-07-01T01:36:25.381Z,0.00
2018-07-01T01:37:25.622Z,0.00
2018-07-01T01:38:25.859Z,0.00
2018-07-01T01:39:26.097Z,0.00
2018-07-01T01:40:26.335Z,0.00
2018-07-01T01:41:26.572Z,0.00
2018-07-01T01:42:26.828Z,0.00
2018-07-01T01:43:27.048Z,0.00
2018-07-01T01:44:27.287Z,0.00
2018-07-01T01:45:27.525Z,0.00
2018-07-01T01:46:27.762Z,0.00
2018-07-01T01:47:27.999Z,0.00
2018-07-01T01:48:28.239Z,0.00
2018-07-01T01:49:28.479Z,0.00
2018-07-01T01:50:28.716Z,0.00
2018-07-01T01:51:28.952Z,0.00
2018-07-01T01:52:29.192Z,0.00
2018-07-01T01:53:29.432Z,0.00
2018-07-01T01:54:29.670Z,0.00
2018-07-01T01:55:29.908Z,0.00
2018-07-01T01:56:30.147Z,0.00
2018-07-01T01:57:30.385Z,0.00
2018-07-01T01:58:30.624Z,0.00
2018-07-01T01:59:30.864Z,0.00
2018-07-01T02:00:31.103Z,0.00
2018-07-01T02:01:31.342Z,0.00
2018-07-01T02:02:31.580Z,0.00
2018-07-01T02:03:31.819Z,0.00
2018-07-01T02:04:32.059Z,0.00
2018-07-01T02:05:32.296Z,0.00
2018-07-01T02:06:32.534Z,0.00
2018-07-01T02:07:32.774Z,0.00
2018-07-01T02:08:33.011Z,0.00
2018-07-01T02:09:33.251Z,0.00
2018-07-01T02:10:33.490Z,0.00
2018-07-01T02:11:33.729Z,0.00
2018-07-01T02:12:33.966Z,0.00
2018-07-01T02:13:34.205Z,0.00
2018-07-01T02:14:34.448Z,0.00
2018-07-01T02:15:34.685Z,0.00
2018-07-01T02:16:34.922Z,0.00
2018-07-01T02:17:35.160Z,0.00
2018-07-01T02:18:35.399Z,0.00
2018-07-01T02:19:35.638Z,0.00
2018-07-01T02:20:35.877Z,0.00
2018-07-01T02:21:36.116Z,0.00
2018-07-01T02:22:36.355Z,0.00
2018-07-01T02:23:36.594Z,0.00
2018-07-01T02:24:36.830Z,0.00
2018-07-01T02:25:37.068Z,0.00
2018-07-01T02:26:37.307Z,0.00
2018-07-01T02:27:37.548Z,0.00
2018-07-01T02:28:37.790Z,0.00
2018-07-01T02:29:38.026Z,0.00
2018-07-01T02:30:38.264Z,0.00
2018-07-01T02:31:38.499Z,0.00
2018-07-01T02:32:38.738Z,0.00
2018-07-01T02:33:38.974Z,0.00
2018-07-01T02:34:39.218Z,0.00
2018-07-01T02:35:39.452Z,0.00
2018-07-01T02:36:39.692Z,0.00
2018-07-01T02:37:39.931Z,0.00
2018-07-01T02:38:40.168Z,0.00
2018-07-01T02:39:40.408Z,0.00
2018-07-01T02:40:40.646Z,0.00
2018-07-01T02:41:40.885Z,0.00
2018-07-01T02:42:41.124Z,0.00
2018-07-01T02:43:41.364Z,0.00
2018-07-01T02:44:41.600Z,0.00
2018-07-01T02:45:41.839Z,0.00
2018-07-01T02:46:42.077Z,0.00
2018-07-01T02:47:42.314Z,0.00
2018-07-01T02:48:42.553Z,0.00
2018-07-01T02:49:42.787Z,0.00
2018-07-01T02:50:43.024Z,0.00
2018-07-01T02:51:43.264Z,0.00
2018-07-01T02:52:43.505Z,0.00
2018-07-01T02:53:43.779Z,0.00
2018-07-01T02:54:43.980Z,0.00
2018-07-01T02:55:44.219Z,0.00
2018-07-01T02:56:44.458Z,0.00
2018-07-01T02:57:44.697Z,0.00
2018-07-01T02:58:44.933Z,5.63
2018-07-01T02:59:45.177Z,5.63
2018-07-01T03:00:45.414Z,5.63
2018-07-01T03:01:45.653Z,5.63
2018-07-01T03:02:45.892Z,5.63
2018-07-01T03:03:46.132Z,5.63
2018-07-01T03:04:46.373Z,5.63
2018-07-01T03:05:46.610Z,5.63
2018-07-01T03:06:46.849Z,11.25
2018-07-01T03:07:47.094Z,11.25
2018-07-01T03:08:47.324Z,11.25
2018-07-01T03:09:47.563Z,11.25
2018-07-01T03:10:47.798Z,11.25
2018-07-01T03:11:48.039Z,16.88
2018-07-01T03:12:48.279Z,16.88
2018-07-01T03:13:48.517Z,16.88
2018-07-01T03:14:48.752Z,16.88
2018-07-01T03:15:48.991Z,22.50
2018-07-01T03:16:49.231Z,22.50
2018-07-01T03:17:49.469Z,22.50
2018-07-01T03:18:49.709Z,22.50
2018-07-01T03:19:49.946Z,28.13
2018-07-01T03:20:50.183Z,28.13
2018-07-01T03:21:50.422Z,28.13
2018-07-01T03:22:50.659Z,33.75
2018-07-01T03:23:50.897Z,33.75
2018-07-01T03:24:51.135Z,33.75
2018-07-01T03:25:51.373Z,39.38
2018-07-01T03:26:51.611Z,39.38
2018-07-01T03:27:51.852Z,39.38
2018-07-01T03:28:52.087Z,45.00
2018-07-01T03:29:52.327Z,45.00
2018-07-01T03:30:52.563Z,45.00
2018-07-01T03:31:52.802Z,50.63
2018-07-01T03:32:53.039Z,50.63
2018-07-01T03:33:53.278Z,56.25
2018-07-01T03:34:53.515Z,61.88
2018-07-01T03:35:53.757Z,67.50
2018-07-01T03:36:53.994Z,73.13
2018-07-01T03:37:54.232Z,73.13
2018-07-01T03:38:54.470Z,78.75
2018-07-01T03:39:54.710Z,78.75
2018-07-01T03:40:54.947Z,84.38
2018-07-01T03:41:55.188Z,84.38
2018-07-01T03:42:55.424Z,84.38
2018-07-01T03:43:55.663Z,84.38
2018-07-01T03:44:55.899Z,90.00
2018-07-01T03:45:56.139Z,90.00
2018-07-01T03:46:56.381Z,95.63
2018-07-01T03:47:56.614Z,95.63
2018-07-01T03:48:56.853Z,101.25
2018-07-01T03:49:57.091Z,101.25
2018-07-01T03:50:57.329Z,106.88
2018-07-01T03:51:57.567Z,106.88
2018-07-01T03:52:57.811Z,106.88
2018-07-01T03:53:58.045Z,112.50
2018-07-01T03:54:58.284Z,112.50
2018-07-01T03:55:58.519Z,118.13
2018-07-01T03:56:58.759Z,118.13
2018-07-01T03:57:58.994Z,123.75
2018-07-01T03:58:59.235Z,123.75
2018-07-01T03:59:59.473Z,129.38
2018-07-01T04:00:59.716Z,129.38
2018-07-01T04:01:59.950Z,129.38
2018-07-01T04:03:00.187Z,135.00
2018-07-01T04:04:00.428Z,135.00
2018-07-01T04:05:00.663Z,140.63
2018-07-01T04:06:00.904Z,140.63
2018-07-01T04:07:01.142Z,146.25
2018-07-01T04:08:01.380Z,146.25
2018-07-01T04:09:01.619Z,146.25
2018-07-01T04:10:01.857Z,151.88
2018-07-01T04:11:02.092Z,151.88
2018-07-01T04:12:02.330Z,157.50
2018-07-01T04:13:02.568Z,157.50
2018-07-01T04:14:02.809Z,163.13
2018-07-01T04:15:03.045Z,163.13
2018-07-01T04:16:03.284Z,163.13
2018-07-01T04:17:03.523Z,168.75
2018-07-01T04:18:03.762Z,168.75
2018-07-01T04:19:04.000Z,168.75
2018-07-01T04:20:04.236Z,174.38
2018-07-01T04:21:04.476Z,174.38
2018-07-01T04:22:04.717Z,180.00
2018-07-01T04:23:04.952Z,180.00
2018-07-01T04:24:05.192Z,185.63
2018-07-01T04:25:05.433Z,185.63
2018-07-01T04:26:05.669Z,185.63
2018-07-01T04:27:05.908Z,185.63
2018-07-01T04:28:06.147Z,185.63
2018-07-01T04:29:06.385Z,191.25
2018-07-01T04:30:06.623Z,191.25
2018-07-01T04:31:06.917Z,196.88
2018-07-01T04:32:07.100Z,196.88
2018-07-01T04:33:07.340Z,196.88
2018-07-01T04:34:07.578Z,202.50
2018-07-01T04:35:07.818Z,202.50
2018-07-01T04:36:08.056Z,208.13
2018-07-01T04:37:08.294Z,213.75
2018-07-01T04:38:08.533Z,213.75
2018-07-01T04:39:08.771Z,213.75
2018-07-01T04:40:09.011Z,213.75
2018-07-01T04:41:09.250Z,213.75
2018-07-01T04:42:09.490Z,213.75
2018-07-01T04:43:09.729Z,219.38
2018-07-01T04:44:09.967Z,219.38
2018-07-01T04:45:10.206Z,225.00
2018-07-01T04:46:10.442Z,225.00
2018-07-01T04:47:10.682Z,230.63
2018-07-01T04:48:10.927Z,230.63
2018-07-01T04:49:11.173Z,225.00
2018-07-01T04:50:11.394Z,225.00
2018-07-01T04:51:11.633Z,236.25
2018-07-01T04:52:11.873Z,230.63
2018-07-01T04:53:12.110Z,236.25
2018-07-01T04:54:12.353Z,236.25
2018-07-01T04:55:12.690Z,236.25
2018-07-01T04:56:12.833Z,241.88
2018-07-01T04:57:13.070Z,241.88
2018-07-01T04:58:13.311Z,241.88
2018-07-01T04:59:13.572Z,247.50
2018-07-01T05:00:13.809Z,247.50
2018-07-01T05:01:14.049Z,247.50
2018-07-01T05:02:14.348Z,241.88
2018-07-01T05:03:14.528Z,241.88
2018-07-01T05:04:14.768Z,241.88
2018-07-01T05:05:15.009Z,241.88
2018-07-01T05:06:15.248Z,241.88
2018-07-01T05:07:15.489Z,247.50
2018-07-01T05:08:15.730Z,247.50
2018-07-01T05:09:15.974Z,247.50
2018-07-01T05:10:16.215Z,253.13
2018-07-01T05:11:16.453Z,253.13
2018-07-01T05:12:16.695Z,253.13
2018-07-01T05:13:16.932Z,253.13
2018-07-01T05:14:17.170Z,253.13
2018-07-01T05:15:17.410Z,258.75
2018-07-01T05:16:17.651Z,258.75
2018-07-01T05:17:17.893Z,258.75
2018-07-01T05:18:18.132Z,258.75
2018-07-01T05:19:18.370Z,258.75
2018-07-01T05:20:18.611Z,258.75
2018-07-01T05:21:18.849Z,264.38
2018-07-01T05:22:19.090Z,275.63
2018-07-01T05:23:19.329Z,264.38
2018-07-01T05:24:19.569Z,258.75
2018-07-01T05:25:19.809Z,264.38
2018-07-01T05:26:20.052Z,264.38
2018-07-01T05:27:20.288Z,264.38
2018-07-01T05:28:20.529Z,264.38
2018-07-01T05:29:20.770Z,264.38
2018-07-01T05:30:21.009Z,264.38
2018-07-01T05:31:21.249Z,264.38
2018-07-01T05:32:21.489Z,264.38
2018-07-01T05:33:21.732Z,270.00
2018-07-01T05:34:21.970Z,270.00
2018-07-01T05:35:22.213Z,270.00
2018-07-01T05:36:22.452Z,275.63
2018-07-01T05:37:22.691Z,281.25
2018-07-01T05:38:22.933Z,286.88
2018-07-01T05:39:23.172Z,303.75
2018-07-01T05:40:23.415Z,309.38
2018-07-01T05:41:23.654Z,309.38
2018-07-01T05:42:23.893Z,298.13
2018-07-01T05:43:24.133Z,286.88
2018-07-01T05:44:24.372Z,275.63
2018-07-01T05:45:24.616Z,270.00
2018-07-01T05:46:24.856Z,270.00
2018-07-01T05:47:25.096Z,270.00
2018-07-01T05:48:25.337Z,270.00
2018-07-01T05:49:25.606Z,270.00
2018-07-01T05:50:25.820Z,270.00
2018-07-01T05:51:26.063Z,270.00
2018-07-01T05:52:26.302Z,270.00
2018-07-01T05:53:26.542Z,275.63
2018-07-01T05:54:26.782Z,275.63
2018-07-01T05:55:27.024Z,275.63
2018-07-01T05:56:27.283Z,275.63
2018-07-01T05:57:27.509Z,275.63
2018-07-01T05:58:27.747Z,275.63
2018-07-01T05:59:27.990Z,275.63
2018-07-01T06:00:28.231Z,275.63
2018-07-01T06:01:28.499Z,275.63
2018-07-01T06:02:28.782Z,275.63
2018-07-01T06:03:29.027Z,275.63
2018-07-01T06:04:29.270Z,275.63
2018-07-01T06:05:29.555Z,281.25
2018-07-01T06:06:29.801Z,275.63
2018-07-01T06:07:30.075Z,281.25
2018-07-01T06:08:30.360Z,281.25
2018-07-01T06:09:30.642Z,281.25
2018-07-01T06:10:30.902Z,281.25
2018-07-01T06:11:31.139Z,281.25
2018-07-01T06:12:31.380Z,281.25
2018-07-01T06:13:31.625Z,281.25
2018-07-01T06:14:31.861Z,281.25
2018-07-01T06:15:32.103Z,281.25
2018-07-01T06:16:32.391Z,281.25
2018-07-01T06:17:32.613Z,281.25
2018-07-01T06:18:32.853Z,281.25
2018-07-01T06:19:33.112Z,286.88
2018-07-01T06:20:33.369Z,281.25
2018-07-01T06:21:33.616Z,281.25
2018-07-01T06:22:33.853Z,286.88
2018-07-01T06:23:34.096Z,286.88
2018-07-01T06:24:34.372Z,286.88
2018-07-01T06:25:34.610Z,286.88
2018-07-01T06:26:34.892Z,286.88
2018-07-01T06:27:35.262Z,286.88
2018-07-01T06:28:35.521Z,286.88
2018-07-01T06:29:35.763Z,286.88
2018-07-01T06:30:36.010Z,286.88
2018-07-01T06:31:36.278Z,292.50
2018-07-01T06:32:36.550Z,292.50
2018-07-01T06:33:36.798Z,292.50
2018-07-01T06:34:37.041Z,292.50
2018-07-01T06:35:37.309Z,292.50
2018-07-01T06:36:37.599Z,292.50
2018-07-01T06:37:37.891Z,292.50
2018-07-01T06:38:38.132Z,292.50
2018-07-01T06:39:38.377Z,292.50
2018-07-01T06:40:38.649Z,298.13
2018-07-01T06:41:38.888Z,298.13
2018-07-01T06:42:39.133Z,298.13
2018-07-01T06:43:39.375Z,298.13
2018-07-01T06:44:39.719Z,298.13
2018-07-01T06:45:39.964Z,298.13
2018-07-01T06:46:40.206Z,298.13
2018-07-01T06:47:40.470Z,303.75
2018-07-01T06:48:40.683Z,309.38
2018-07-01T06:49:40.925Z,303.75
2018-07-01T06:50:41.166Z,303.75
2018-07-01T06:51:41.433Z,303.75
2018-07-01T06:52:41.678Z,303.75
2018-07-01T06:53:41.921Z,303.75
2018-07-01T06:54:42.160Z,303.75
2018-07-01T06:55:42.403Z,303.75
2018-07-01T06:56:42.643Z,303.75
2018-07-01T06:57:42.883Z,309.38
2018-07-01T06:58:43.127Z,309.38
2018-07-01T06:59:43.374Z,309.38
2018-07-01T07:00:43.609Z,309.38
2018-07-01T07:01:43.869Z,309.38
2018-07-01T07:02:44.095Z,309.38
2018-07-01T07:03:44.337Z,309.38
2018-07-01T07:04:44.581Z,315.00
2018-07-01T07:05:44.827Z,315.00
2018-07-01T07:06:45.065Z,315.00
2018-07-01T07:07:45.365Z,315.00
2018-07-01T07:08:45.549Z,315.00
2018-07-01T07:09:45.792Z,315.00
2018-07-01T07:10:46.035Z,315.00
2018-07-01T07:11:46.284Z,315.00
2018-07-01T07:12:46.527Z,320.63
2018-07-01T07:13:46.766Z,320.63
2018-07-01T07:14:47.011Z,315.00
2018-07-01T07:15:47.252Z,320.63
2018-07-01T07:16:47.498Z,320.63
2018-07-01T07:17:47.736Z,320.63
2018-07-01T07:18:47.977Z,320.63
2018-07-01T07:19:48.222Z,320.63
2018-07-01T07:20:48.463Z,320.63
2018-07-01T07:21:48.900Z,326.25
2018-07-01T07:22:48.994Z,320.63
2018-07-01T07:23:49.234Z,326.25
2018-07-01T07:24:49.478Z,365.63
2018-07-01T07:25:49.719Z,483.75
2018-07-01T07:26:49.962Z,596.25
2018-07-01T07:27:50.205Z,624.38
2018-07-01T07:28:50.450Z,618.75
2018-07-01T07:29:50.692Z,618.75
2018-07-01T07:30:50.935Z,635.63
2018-07-01T07:31:51.218Z,646.88
2018-07-01T07:32:51.423Z,624.38
2018-07-01T07:33:51.660Z,624.38
2018-07-01T07:34:51.901Z,630.00
2018-07-01T07:35:52.149Z,635.63
2018-07-01T07:36:52.389Z,635.63
2018-07-01T07:37:52.632Z,641.25
2018-07-01T07:38:52.876Z,635.63
2018-07-01T07:39:53.123Z,641.25
2018-07-01T07:40:53.372Z,641.25
2018-07-01T07:41:53.615Z,641.25
2018-07-01T07:42:53.861Z,641.25
2018-07-01T07:43:54.106Z,641.25
2018-07-01T07:44:54.370Z,641.25
2018-07-01T07:45:54.599Z,646.88
2018-07-01T07:46:54.844Z,646.88
2018-07-01T07:47:55.094Z,635.63
2018-07-01T07:48:55.345Z,635.63
2018-07-01T07:49:55.591Z,646.88
2018-07-01T07:50:55.839Z,641.25
2018-07-01T07:51:56.088Z,652.50
2018-07-01T07:52:56.334Z,663.75
2018-07-01T07:53:56.584Z,669.38
2018-07-01T07:54:56.832Z,686.25
2018-07-01T07:55:57.079Z,703.13
2018-07-01T07:56:57.329Z,720.00
2018-07-01T07:57:57.576Z,742.50
2018-07-01T07:58:57.822Z,776.25
2018-07-01T07:59:58.070Z,798.75
2018-07-01T08:00:58.316Z,832.50
2018-07-01T08:01:58.611Z,860.63
2018-07-01T08:02:58.813Z,900.00
2018-07-01T08:03:59.059Z,916.88
2018-07-01T08:04:59.308Z,945.00
2018-07-01T08:05:59.558Z,961.88
2018-07-01T08:06:59.808Z,995.63
2018-07-01T08:08:00.060Z,995.63
2018-07-01T08:09:00.308Z,1001.25
2018-07-01T08:10:00.554Z,1012.50
2018-07-01T08:11:00.794Z,984.38
2018-07-01T08:12:01.045Z,1001.25
2018-07-01T08:13:01.305Z,995.63
2018-07-01T08:14:01.537Z,1006.88
2018-07-01T08:15:01.784Z,1006.88
2018-07-01T08:16:02.074Z,1001.25
2018-07-01T08:17:02.283Z,1001.25
2018-07-01T08:18:02.529Z,1006.88
2018-07-01T08:19:02.778Z,1023.75
2018-07-01T08:20:03.019Z,1046.25
2018-07-01T08:21:03.272Z,1063.13
2018-07-01T08:22:03.570Z,1080.00
2018-07-01T08:23:03.768Z,1102.50
2018-07-01T08:24:04.015Z,1108.13
2018-07-01T08:25:04.262Z,1164.38
2018-07-01T08:26:04.511Z,1141.88
2018-07-01T08:27:04.758Z,1141.88
2018-07-01T08:28:05.009Z,1147.50
2018-07-01T08:29:05.337Z,1158.75
2018-07-01T08:30:05.558Z,1170.00
2018-07-01T08:31:05.759Z,1170.00
2018-07-01T08:32:06.005Z,1181.25
2018-07-01T08:33:06.253Z,1198.13
2018-07-01T08:34:06.503Z,1209.38
2018-07-01T08:35:06.752Z,1220.63
2018-07-01T08:36:06.999Z,1231.88
2018-07-01T08:37:07.249Z,1243.13
2018-07-01T08:38:07.499Z,1254.38
2018-07-01T08:39:07.749Z,1248.75
2018-07-01T08:40:08.059Z,1260.00
2018-07-01T08:41:08.247Z,1271.25
2018-07-01T08:42:08.496Z,1293.75
2018-07-01T08:43:08.744Z,1305.00
2018-07-01T08:44:08.993Z,1321.88
2018-07-01T08:45:09.242Z,1271.25
2018-07-01T08:46:09.510Z,1147.50
2018-07-01T08:47:09.747Z,1046.25
2018-07-01T08:48:09.991Z,973.13
2018-07-01T08:49:10.239Z,939.38
2018-07-01T08:50:10.489Z,928.13
2018-07-01T08:51:10.737Z,922.50
2018-07-01T08:52:10.988Z,922.50
2018-07-01T08:53:11.239Z,922.50
2018-07-01T08:54:11.490Z,905.63
2018-07-01T08:55:11.740Z,905.63
2018-07-01T08:56:11.992Z,905.63
2018-07-01T08:57:12.240Z,888.75
2018-07-01T08:58:12.495Z,860.63
2018-07-01T08:59:12.742Z,843.75
2018-07-01T09:00:12.993Z,826.88
2018-07-01T09:01:13.251Z,821.25
2018-07-01T09:02:13.492Z,815.63
2018-07-01T09:03:13.745Z,810.00
2018-07-01T09:04:13.989Z,810.00
2018-07-01T09:05:14.239Z,821.25
2018-07-01T09:06:14.487Z,804.38
2018-07-01T09:07:14.738Z,810.00
2018-07-01T09:08:14.988Z,810.00
2018-07-01T09:09:15.238Z,804.38
2018-07-01T09:10:15.486Z,798.75
2018-07-01T09:11:15.735Z,793.13
2018-07-01T09:12:15.982Z,787.50
2018-07-01T09:13:16.235Z,781.88
2018-07-01T09:14:16.485Z,781.88
2018-07-01T09:15:16.736Z,781.88
2018-07-01T09:16:16.984Z,781.88
2018-07-01T09:17:17.252Z,776.25
2018-07-01T09:18:17.480Z,781.88
2018-07-01T09:19:17.735Z,776.25
2018-07-01T09:20:17.984Z,776.25
2018-07-01T09:21:18.237Z,776.25
2018-07-01T09:22:18.492Z,776.25
2018-07-01T09:23:18.738Z,781.88
2018-07-01T09:24:18.989Z,776.25
2018-07-01T09:25:19.241Z,781.88
2018-07-01T09:26:19.488Z,776.25
2018-07-01T09:27:19.738Z,781.88
2018-07-01T09:28:19.991Z,776.25
2018-07-01T09:29:20.244Z,776.25
2018-07-01T09:30:20.495Z,776.25
2018-07-01T09:31:20.744Z,776.25
2018-07-01T09:32:20.994Z,781.88
2018-07-01T09:33:21.250Z,787.50
2018-07-01T09:34:21.501Z,781.88
2018-07-01T09:35:21.745Z,781.88
2018-07-01T09:36:21.996Z,781.88
2018-07-01T09:37:22.244Z,781.88
2018-07-01T09:38:22.495Z,781.88
2018-07-01T09:39:22.746Z,787.50
2018-07-01T09:40:22.997Z,787.50
2018-07-01T09:41:23.248Z,787.50
2018-07-01T09:42:23.499Z,787.50
2018-07-01T09:43:23.754Z,787.50
2018-07-01T09:44:24.000Z,787.50
2018-07-01T09:45:24.252Z,798.75
2018-07-01T09:46:24.503Z,787.50
2018-07-01T09:47:24.752Z,787.50
2018-07-01T09:48:25.005Z,787.50
2018-07-01T09:49:25.254Z,787.50
2018-07-01T09:50:25.532Z,787.50
2018-07-01T09:51:25.755Z,787.50
2018-07-01T09:52:26.005Z,793.13
2018-07-01T09:53:26.257Z,793.13
2018-07-01T09:54:26.510Z,793.13
2018-07-01T09:55:26.764Z,793.13
2018-07-01T09:56:27.015Z,793.13
2018-07-01T09:57:27.269Z,793.13
2018-07-01T09:58:27.516Z,793.13
2018-07-01T09:59:27.776Z,793.13
2018-07-01T10:00:28.025Z,793.13
2018-07-01T10:01:28.273Z,798.75
2018-07-01T10:02:28.522Z,798.75
2018-07-01T10:03:28.773Z,798.75
2018-07-01T10:04:29.017Z,804.38
2018-07-01T10:05:29.264Z,804.38
2018-07-01T10:06:29.518Z,810.00
2018-07-01T10:07:29.767Z,815.63
2018-07-01T10:08:30.021Z,826.88
2018-07-01T10:09:30.270Z,832.50
2018-07-01T10:10:30.518Z,838.13
2018-07-01T10:11:30.773Z,855.00
2018-07-01T10:12:31.022Z,855.00
2018-07-01T10:13:31.277Z,871.88
2018-07-01T10:14:32.404Z,877.50
2018-07-01T10:15:31.784Z,905.63
2018-07-01T10:16:32.036Z,928.13
2018-07-01T10:17:32.288Z,1096.88
2018-07-01T10:18:32.541Z,1726.88
2018-07-01T10:19:32.791Z,2323.13
2018-07-01T10:20:33.047Z,2385.00
2018-07-01T10:21:33.299Z,2368.13
2018-07-01T10:22:33.551Z,2401.88
2018-07-01T10:23:33.803Z,2401.88
2018-07-01T10:24:34.059Z,2463.75
2018-07-01T10:25:34.304Z,2475.00
2018-07-01T10:26:34.646Z,2536.88
2018-07-01T10:27:34.812Z,2525.63
2018-07-01T10:28:35.070Z,2576.25
2018-07-01T10:29:35.319Z,2604.38
2018-07-01T10:30:35.572Z,2621.25
2018-07-01T10:31:35.824Z,2632.50
2018-07-01T10:32:36.071Z,2638.13
2018-07-01T10:33:36.318Z,2643.75
2018-07-01T10:34:36.573Z,2632.50
2018-07-01T10:35:36.825Z,2649.38
2018-07-01T10:36:37.075Z,2660.63
2018-07-01T10:37:37.328Z,2671.88
2018-07-01T10:38:37.583Z,2694.38
2018-07-01T10:39:37.833Z,2683.13
2018-07-01T10:40:38.088Z,2683.13
2018-07-01T10:41:38.341Z,2716.88
2018-07-01T10:42:38.593Z,2728.13
2018-07-01T10:43:38.841Z,2722.50
2018-07-01T10:44:39.094Z,2733.75
2018-07-01T10:45:39.391Z,2756.25
2018-07-01T10:46:39.591Z,2767.50
2018-07-01T10:47:39.841Z,2806.88
2018-07-01T10:48:40.093Z,2812.50
2018-07-01T10:49:40.345Z,2840.63
2018-07-01T10:50:40.599Z,2863.13
2018-07-01T10:51:40.898Z,2880.00
2018-07-01T10:52:41.102Z,2896.88
2018-07-01T10:53:41.354Z,2902.50
2018-07-01T10:54:41.605Z,2891.25
2018-07-01T10:55:41.866Z,2908.13
2018-07-01T10:56:42.113Z,2913.75
2018-07-01T10:57:42.392Z,2919.38
2018-07-01T10:58:42.621Z,2919.38
2018-07-01T10:59:42.866Z,2925.00
2018-07-01T11:00:43.120Z,2936.25
2018-07-01T11:01:43.372Z,2953.13
2018-07-01T11:02:43.625Z,2958.75
2018-07-01T11:03:43.875Z,2947.50
2018-07-01T11:04:44.131Z,2964.38
2018-07-01T11:05:44.383Z,2998.13
2018-07-01T11:06:44.649Z,3015.00
2018-07-01T11:07:44.902Z,2998.13
2018-07-01T11:08:45.155Z,2998.13
2018-07-01T11:09:45.411Z,2998.13
2018-07-01T11:10:45.662Z,3031.88
2018-07-01T11:11:45.961Z,3003.75
2018-07-01T11:12:46.167Z,2992.50
2018-07-01T11:13:46.424Z,2992.50
2018-07-01T11:14:46.680Z,2970.00
2018-07-01T11:15:46.930Z,2981.25
2018-07-01T11:16:47.185Z,2998.13
2018-07-01T11:17:47.424Z,2998.13
2018-07-01T11:18:47.687Z,2986.88
2018-07-01T11:19:47.939Z,2970.00
2018-07-01T11:20:48.190Z,2958.75
2018-07-01T11:21:48.447Z,2958.75
2018-07-01T11:22:48.698Z,2953.13
2018-07-01T11:23:48.957Z,2947.50
2018-07-01T11:24:49.207Z,2981.25
2018-07-01T11:25:49.459Z,2986.88
2018-07-01T11:26:49.838Z,3015.00
2018-07-01T11:27:49.965Z,3026.25
2018-07-01T11:28:50.221Z,3026.25
2018-07-01T11:29:50.473Z,3020.63
2018-07-01T11:30:50.725Z,3015.00
2018-07-01T11:31:50.978Z,2998.13
2018-07-01T11:32:51.383Z,2981.25
2018-07-01T11:33:51.484Z,2970.00
2018-07-01T11:34:51.738Z,2964.38
2018-07-01T11:35:51.991Z,2941.88
2018-07-01T11:36:52.240Z,2936.25
2018-07-01T11:37:52.489Z,2925.00
2018-07-01T11:38:52.741Z,2908.13
2018-07-01T11:39:52.992Z,2874.38
2018-07-01T11:40:53.243Z,2829.38
2018-07-01T11:41:53.499Z,2812.50
2018-07-01T11:42:53.748Z,2576.25
2018-07-01T11:43:53.999Z,2148.75
2018-07-01T11:44:54.251Z,1625.63
2018-07-01T11:45:54.500Z,1147.50
2018-07-01T11:46:54.743Z,933.75
2018-07-01T11:47:55.052Z,866.25
2018-07-01T11:48:55.255Z,843.75
2018-07-01T11:49:55.508Z,821.25
2018-07-01T11:50:55.766Z,810.00
2018-07-01T11:51:56.019Z,793.13
2018-07-01T11:52:56.271Z,787.50
2018-07-01T11:53:56.521Z,776.25
2018-07-01T11:54:56.776Z,770.63
2018-07-01T11:55:57.031Z,765.00
2018-07-01T11:56:57.283Z,765.00
2018-07-01T11:57:57.536Z,753.75
2018-07-01T11:58:57.789Z,748.13
2018-07-01T11:59:58.113Z,748.13
2018-07-01T12:00:58.293Z,736.88
2018-07-01T12:01:58.641Z,736.88
2018-07-01T12:02:58.814Z,736.88
2018-07-01T12:03:59.056Z,736.88
2018-07-01T12:05:16.211Z,731.25
2018-07-01T12:05:59.565Z,736.88
2018-07-01T12:06:59.813Z,725.63
2018-07-01T12:08:00.067Z,725.63
2018-07-01T12:09:00.318Z,725.63
2018-07-01T12:10:00.572Z,725.63
2018-07-01T12:11:00.823Z,720.00
2018-07-01T12:12:01.143Z,725.63
2018-07-01T12:13:01.327Z,714.38
2018-07-01T12:14:01.583Z,714.38
2018-07-01T12:15:01.836Z,714.38
2018-07-01T12:16:02.091Z,708.75
2018-07-01T12:17:02.344Z,708.75
2018-07-01T12:18:02.598Z,708.75
2018-07-01T12:19:02.853Z,708.75
2018-07-01T12:20:03.105Z,703.13
2018-07-01T12:21:03.359Z,703.13
2018-07-01T12:22:03.612Z,703.13
2018-07-01T12:23:03.863Z,697.50
2018-07-01T12:24:04.114Z,697.50
2018-07-01T12:25:04.369Z,703.13
2018-07-01T12:26:04.625Z,708.75
2018-07-01T12:27:04.873Z,703.13
2018-07-01T12:28:05.124Z,708.75
2018-07-01T12:29:05.379Z,703.13
2018-07-01T12:30:05.631Z,697.50
2018-07-01T12:31:05.883Z,703.13
2018-07-01T12:32:06.135Z,697.50
2018-07-01T12:33:06.389Z,691.88
2018-07-01T12:34:06.643Z,691.88
2018-07-01T12:35:06.896Z,691.88
2018-07-01T12:36:07.152Z,691.88
2018-07-01T12:37:07.409Z,691.88
2018-07-01T12:38:07.661Z,691.88
2018-07-01T12:39:07.916Z,686.25
2018-07-01T12:40:08.169Z,686.25